Time;durP1;ratioP1;P1;durP2;ratioP2;P2;SDS_P1;SDS_P2;PMS_P1;PMS_P2;Temp;Humidity;BMP_temperature;BMP_pressure;BME280_temperature;BME280_humidity;BME280_pressure;Samples;Min_cycle;Max_cycle;Signal;HPM_P1;HPM_P2
2022/07/28 00:00:56;;;;;;;2.78;0.20;;;;;;;19.49;61.83;101411.78;7390949;19;20014;-65
2022/07/28 00:03:23;;;;;;;3.33;0.20;;;;;;;19.48;62.10;101404.78;7390234;19;20428;-65
2022/07/28 00:05:50;;;;;;;3.97;0.25;;;;;;;19.46;61.85;101401.47;7387890;19;20346;-66
2022/07/28 00:08:17;;;;;;;3.83;0.30;;;;;;;19.45;61.78;101405.19;7389770;19;20017;-63
2022/07/28 00:10:44;;;;;;;2.47;0.20;;;;;;;19.42;62.12;101408.19;7392495;19;20035;-68
2022/07/28 00:13:10;;;;;;;1.90;0.50;;;;;;;19.42;62.12;101402.84;7390114;19;20014;-65
2022/07/28 00:15:37;;;;;;;2.97;0.30;;;;;;;19.43;62.83;101402.66;7389944;19;20081;-65
2022/07/28 00:18:11;;;;;;;2.28;0.20;;;;;;;19.43;62.42;101401.84;7391108;19;20340;-65
2022/07/28 00:20:38;;;;;;;3.17;0.22;;;;;;;19.43;62.45;101401.84;7387061;19;20342;-65
2022/07/28 00:23:05;;;;;;;2.40;0.82;;;;;;;19.42;62.81;101401.00;7390225;19;20532;-65
2022/07/28 00:25:32;;;;;;;2.42;0.20;;;;;;;19.42;62.93;101402.84;7389445;19;20097;-66
2022/07/28 00:27:58;;;;;;;2.05;0.30;;;;;;;19.43;62.58;101404.50;7390613;19;20015;-65
2022/07/28 00:30:25;;;;;;;5.57;0.32;;;;;;;19.43;63.73;101408.00;7388444;19;20371;-66
2022/07/28 00:32:52;;;;;;;1.05;0.20;;;;;;;19.44;63.14;101406.16;7390776;19;20014;-65
2022/07/28 00:35:19;;;;;;;1.63;0.20;;;;;;;19.44;62.94;101406.16;7387071;19;20010;-65
2022/07/28 00:37:57;;;;;;;1.13;0.22;;;;;;;19.44;63.46;101400.81;7389746;19;20136;-66
2022/07/28 00:41:09;;;;;;;3.50;0.30;;;;;;;19.45;62.90;101405.19;7387939;19;20478;-62
2022/07/28 00:43:13;;;;;;;3.08;0.20;;;;;;;19.44;63.44;101387.47;7389481;19;20011;-67
2022/07/28 00:45:40;;;;;;;3.83;0.43;;;;;;;19.43;64.18;101396.50;7387539;19;20006;-66
2022/07/28 00:48:12;;;;;;;0.98;0.20;;;;;;;19.43;63.88;101383.16;7389463;19;20085;-67
2022/07/28 00:50:39;;;;;;;1.20;0.20;;;;;;;19.42;63.71;101378.81;7387272;19;20014;-62
2022/07/28 00:53:07;;;;;;;2.90;0.20;;;;;;;19.44;63.81;101376.78;7388513;19;20015;-62
2022/07/28 00:55:36;;;;;;;1.40;0.30;;;;;;;19.43;64.10;101378.63;7389651;19;20040;-63
2022/07/28 00:58:26;;;;;;;4.00;0.30;;;;;;;19.44;64.50;101382.13;7388235;19;20015;-62
2022/07/28 01:00:53;;;;;;;1.00;0.20;;;;;;;19.42;64.52;101370.81;7386932;19;20074;-62
2022/07/28 01:03:21;;;;;;;3.40;0.30;;;;;;;19.41;64.46;101378.00;7388161;19;20022;-62
2022/07/28 01:05:57;;;;;;;3.90;0.30;;;;;;;19.41;64.67;101371.84;7384992;19;20016;-66
2022/07/28 01:08:41;;;;;;;3.58;0.35;;;;;;;19.40;64.68;101371.00;7382135;19;20021;-66
2022/07/28 01:11:13;;;;;;;1.48;0.28;;;;;;;19.37;64.74;101376.75;7388537;19;20775;-62
2022/07/28 01:14:12;;;;;;;2.35;0.30;;;;;;;19.35;65.16;101383.31;7389079;19;20018;-62
2022/07/28 01:17:09;;;;;;;4.22;0.40;;;;;;;19.35;65.90;101375.31;7386971;19;20527;-63
2022/07/28 01:19:51;;;;;;;3.13;0.30;;;;;;;19.33;66.09;101374.69;7379803;19;20026;-62
2022/07/28 01:22:24;;;;;;;1.45;0.28;;;;;;;19.32;65.81;101373.03;7388739;19;20343;-63
2022/07/28 01:24:59;;;;;;;2.45;0.20;;;;;;;19.32;66.21;101368.50;7387923;19;20014;-65
2022/07/28 01:27:41;;;;;;;2.50;0.30;;;;;;;19.33;66.32;101366.66;7386704;19;20392;-69
2022/07/28 01:30:08;;;;;;;3.37;0.30;;;;;;;19.33;66.36;101370.16;7389058;19;20478;-67
2022/07/28 01:32:53;;;;;;;0.50;0.20;;;;;;;19.30;66.55;101357.19;7384655;19;20007;-67
2022/07/28 01:35:25;;;;;;;4.15;0.20;;;;;;;19.29;66.95;101355.56;7383664;19;20064;-66
2022/07/28 01:38:01;;;;;;;2.13;0.20;;;;;;;19.29;66.71;101358.25;7387290;19;20802;-66
2022/07/28 01:40:32;;;;;;;0.73;0.20;;;;;;;19.27;66.89;101354.94;7387184;19;20028;-66
2022/07/28 01:43:01;;;;;;;1.58;0.50;;;;;;;19.27;67.50;101354.09;7387851;19;20070;-66
2022/07/28 01:45:31;;;;;;;0.75;0.20;;;;;;;19.23;67.61;101354.50;7386387;19;20032;-66
2022/07/28 01:48:01;;;;;;;7.45;0.40;;;;;;;19.23;67.88;101345.69;7384701;19;20014;-66
2022/07/28 01:50:30;;;;;;;1.17;0.35;;;;;;;19.23;68.09;101345.69;7384206;19;20014;-66
2022/07/28 01:52:57;;;;;;;0.98;0.30;;;;;;;19.25;68.19;101337.47;7386990;19;20019;-65
2022/07/28 01:55:26;;;;;;;1.00;0.28;;;;;;;19.25;68.09;101335.59;7387036;19;20962;-66
2022/07/28 01:57:59;;;;;;;1.15;0.20;;;;;;;19.27;67.90;101335.41;7387212;19;20010;-66
2022/07/28 02:00:27;;;;;;;0.93;0.20;;;;;;;19.28;68.10;101337.06;7386958;19;20018;-66
2022/07/28 02:02:56;;;;;;;3.25;0.22;;;;;;;19.28;68.28;101342.41;7387083;19;20014;-62
2022/07/28 02:05:25;;;;;;;1.90;0.25;;;;;;;19.29;68.94;101330.72;7379697;19;20017;-62
2022/07/28 02:08:00;;;;;;;0.57;0.30;;;;;;;19.29;68.74;101331.56;7384166;19;20015;-62
2022/07/28 02:10:28;;;;;;;1.77;0.30;;;;;;;19.30;68.50;101327.03;7387156;19;20013;-62
2022/07/28 02:12:58;;;;;;;2.75;0.28;;;;;;;19.31;68.47;101326.00;7386411;19;20026;-62
2022/07/28 02:15:26;;;;;;;3.35;0.40;;;;;;;19.31;68.68;101329.50;7386982;19;20037;-62
2022/07/28 02:17:59;;;;;;;3.22;0.30;;;;;;;19.30;68.34;101325.16;7387504;19;20015;-63
2022/07/28 02:20:27;;;;;;;6.30;0.40;;;;;;;19.33;68.43;101331.97;7382994;19;20018;-64
2022/07/28 02:22:56;;;;;;;5.07;0.70;;;;;;;19.35;69.69;101322.72;7385612;19;20452;-64
2022/07/28 02:25:24;;;;;;;0.60;0.20;;;;;;;19.36;68.81;101326.22;7385899;19;20012;-67
2022/07/28 02:28:01;;;;;;;1.67;0.47;;;;;;;19.37;68.68;101311.88;7383652;19;20394;-63
2022/07/28 02:30:57;;;;;;;1.85;0.22;;;;;;;19.39;68.44;101309.84;7385468;19;20017;-65
2022/07/28 02:33:26;;;;;;;3.55;0.40;;;;;;;19.36;68.59;101310.22;7384951;19;20045;-65
2022/07/28 02:36:19;;;;;;;3.25;0.28;;;;;;;19.37;68.51;101314.53;7383945;19;20025;-65
2022/07/28 02:38:49;;;;;;;2.22;0.50;;;;;;;19.37;68.46;101311.88;7385140;19;20365;-65
2022/07/28 02:41:23;;;;;;;2.97;0.50;;;;;;;19.37;68.92;101306.53;7385998;19;20497;-66
2022/07/28 02:43:59;;;;;;;1.95;0.30;;;;;;;19.39;68.56;101312.50;7384872;19;20014;-63
2022/07/28 02:46:51;;;;;;;2.90;0.30;;;;;;;19.39;68.43;101313.31;7383686;19;20030;-63
2022/07/28 02:49:27;;;;;;;3.40;0.38;;;;;;;19.39;68.48;101307.16;7381621;19;20393;-63
2022/07/28 02:51:55;;;;;;;2.00;0.30;;;;;;;19.39;68.52;101304.50;7384047;19;20019;-62
2022/07/28 02:54:24;;;;;;;1.85;0.30;;;;;;;19.40;68.43;101301.59;7382207;19;20019;-62
2022/07/28 02:56:52;;;;;;;1.88;0.40;;;;;;;19.40;68.27;101298.13;7385160;19;20014;-63
2022/07/28 02:59:21;;;;;;;2.38;0.40;;;;;;;19.39;68.68;101297.31;7384510;19;20015;-64
2022/07/28 03:01:49;;;;;;;1.85;0.40;;;;;;;19.40;68.32;101296.25;7383370;19;20006;-64
2022/07/28 03:04:55;;;;;;;1.92;0.30;;;;;;;19.40;68.18;101298.13;7382237;19;20483;-62
2022/07/28 03:07:05;;;;;;;3.88;0.60;;;;;;;19.40;68.57;101298.13;7382543;19;20015;-62
2022/07/28 03:09:44;;;;;;;2.45;0.28;;;;;;;19.39;68.33;101301.81;7381771;19;20074;-63
2022/07/28 03:12:11;;;;;;;2.60;0.47;;;;;;;19.40;68.36;101303.47;7384869;19;20395;-63
2022/07/28 03:14:38;;;;;;;1.27;0.40;;;;;;;19.41;69.10;101305.94;7385053;19;20015;-62
2022/07/28 03:17:06;;;;;;;4.00;0.40;;;;;;;19.42;68.92;101306.75;7383678;19;20015;-62
2022/07/28 03:19:33;;;;;;;1.77;0.30;;;;;;;19.43;68.25;101297.72;7380414;19;20478;-63
2022/07/28 03:22:00;;;;;;;3.70;0.40;;;;;;;19.43;68.38;101301.22;7384257;19;20442;-62
2022/07/28 03:24:32;;;;;;;3.45;0.40;;;;;;;19.43;68.79;101301.22;7382420;19;20011;-62
2022/07/28 03:27:32;;;;;;;2.20;0.30;;;;;;;19.43;68.89;101297.72;7382306;19;20002;-63
2022/07/28 03:30:08;;;;;;;2.60;0.35;;;;;;;19.43;68.85;101300.41;7384393;19;20359;-68
2022/07/28 03:32:40;;;;;;;3.30;0.30;;;;;;;19.42;69.48;101307.56;7383455;19;20010;-63
2022/07/28 03:35:07;;;;;;;3.63;0.70;;;;;;;19.42;69.46;101302.25;7381165;19;20006;-61
2022/07/28 03:37:55;;;;;;;2.20;0.40;;;;;;;19.44;69.35;101305.56;7382544;19;20437;-63
2022/07/28 03:40:30;;;;;;;4.00;0.40;;;;;;;19.41;69.52;101305.09;7382857;19;20015;-62
2022/07/28 03:43:02;;;;;;;1.75;0.38;;;;;;;19.39;69.78;101310.66;7383397;19;20094;-62
2022/07/28 03:45:31;;;;;;;2.88;0.50;;;;;;;19.39;70.09;101302.66;7382775;19;20035;-62
2022/07/28 03:47:59;;;;;;;4.43;0.40;;;;;;;19.41;70.24;101308.59;7381668;19;20010;-62
2022/07/28 03:50:29;;;;;;;2.30;0.35;;;;;;;19.43;70.21;101311.91;7381845;19;20011;-62
2022/07/28 03:52:57;;;;;;;1.98;0.40;;;;;;;19.44;70.30;101307.38;7382505;19;20381;-61
2022/07/28 03:55:25;;;;;;;3.60;0.63;;;;;;;19.42;70.21;101302.25;7383269;19;20015;-66
2022/07/28 03:57:58;;;;;;;1.05;0.30;;;;;;;19.42;70.41;101304.91;7384897;19;20086;-61
2022/07/28 04:00:25;;;;;;;4.25;0.40;;;;;;;19.43;70.57;101301.22;7383188;19;20015;-62
2022/07/28 04:02:52;;;;;;;1.63;0.35;;;;;;;19.41;70.95;101297.91;7384796;19;20018;-62
2022/07/28 04:05:19;;;;;;;2.03;0.50;;;;;;;19.42;70.80;101302.25;7378635;19;20420;-64
2022/07/28 04:07:46;;;;;;;3.08;0.40;;;;;;;19.44;71.38;101300.25;7383002;19;20103;-63
2022/07/28 04:10:15;;;;;;;1.83;0.30;;;;;;;19.47;70.98;101301.66;7382370;19;20037;-63
2022/07/28 04:12:50;;;;;;;2.38;0.30;;;;;;;19.46;71.33;101294.69;7381872;19;20018;-63
2022/07/28 04:15:18;;;;;;;3.35;0.30;;;;;;;19.45;70.49;101293.88;7382544;19;20019;-63
2022/07/28 04:17:49;;;;;;;3.72;0.40;;;;;;;19.45;71.05;101293.88;7383974;19;20014;-61
2022/07/28 04:20:21;;;;;;;4.07;0.30;;;;;;;19.45;71.09;101298.41;7378855;19;20585;-62
2022/07/28 04:22:49;;;;;;;6.60;0.40;;;;;;;19.46;71.47;101292.84;7380595;19;20010;-62
2022/07/28 04:25:19;;;;;;;2.95;0.40;;;;;;;19.46;71.62;101303.50;7382494;19;20035;-66
2022/07/28 04:27:46;;;;;;;4.28;0.40;;;;;;;19.48;71.46;101292.66;7380285;19;20034;-65
2022/07/28 04:30:19;;;;;;;4.72;0.40;;;;;;;19.47;71.35;101299.00;7390465;19;20014;-65
2022/07/28 04:32:47;;;;;;;;;;;;;;;19.47;71.39;101291.81;7389867;19;20010;-64
2022/07/28 04:35:15;;;;;;;4.10;0.40;;;;;;;19.43;71.50;101293.22;7387706;19;20333;-65
2022/07/28 04:37:44;;;;;;;5.88;0.85;;;;;;;19.41;71.56;101292.59;7388674;19;20014;-65
2022/07/28 04:40:12;;;;;;;2.40;0.40;;;;;;;19.42;71.45;101288.06;7386801;19;20043;-65
2022/07/28 04:42:40;;;;;;;2.05;0.30;;;;;;;19.42;71.68;101290.75;7388756;19;20086;-65
2022/07/28 04:45:10;;;;;;;1.08;0.45;;;;;;;19.41;71.64;101297.91;7388943;19;20010;-65
2022/07/28 04:47:38;;;;;;;3.03;0.47;;;;;;;19.43;71.44;101287.88;7386949;19;20094;-62
2022/07/28 04:50:09;;;;;;;2.80;0.40;;;;;;;19.42;71.39;101288.06;7387183;19;20013;-62
2022/07/28 04:52:37;;;;;;;7.78;0.40;;;;;;;19.42;71.53;101286.22;7383657;19;20424;-62
2022/07/28 04:55:05;;;;;;;2.78;0.40;;;;;;;19.45;71.27;101287.72;7387203;19;20400;-63
2022/07/28 04:57:32;;;;;;;2.78;0.40;;;;;;;19.46;71.27;101292.00;7390114;19;20038;-61
2022/07/28 05:00:03;;;;;;;3.22;0.30;;;;;;;19.50;72.40;101290.63;7389832;19;20025;-62
2022/07/28 05:02:31;;;;;;;1.83;0.40;;;;;;;19.50;71.77;101288.78;7389374;19;20514;-62
2022/07/28 05:04:58;;;;;;;3.88;0.40;;;;;;;19.51;71.20;101289.56;7387737;19;20409;-66
2022/07/28 05:07:25;;;;;;;3.30;0.40;;;;;;;19.50;71.08;101290.63;7385308;19;20047;-66
2022/07/28 05:09:52;;;;;;;2.00;0.40;;;;;;;19.49;71.00;101289.78;7389557;19;20018;-63
2022/07/28 05:12:19;;;;;;;6.05;0.60;;;;;;;19.49;70.87;101292.47;7387228;19;20496;-64
2022/07/28 05:14:47;;;;;;;4.35;0.50;;;;;;;19.49;70.68;101288.97;7389484;19;20385;-64
2022/07/28 05:17:14;;;;;;;2.92;0.80;;;;;;;19.50;71.40;101286.09;7389037;19;20569;-62
2022/07/28 05:19:41;;;;;;;3.38;1.13;;;;;;;19.51;71.27;101293.06;7385134;19;20357;-61
2022/07/28 05:22:08;;;;;;;1.27;0.40;;;;;;;19.53;71.00;101300.88;7388685;19;20017;-62
2022/07/28 05:24:35;;;;;;;3.42;0.40;;;;;;;19.51;70.67;101290.38;7386156;19;20034;-62
2022/07/28 05:27:02;;;;;;;2.42;0.40;;;;;;;19.50;70.70;101294.09;7387834;19;20038;-62
2022/07/28 05:29:29;;;;;;;5.97;0.40;;;;;;;19.50;70.71;101296.78;7388047;19;20343;-63
2022/07/28 05:32:13;;;;;;;3.22;0.40;;;;;;;19.51;70.60;101295.72;7388128;19;20018;-63
2022/07/28 05:34:44;;;;;;;4.10;0.63;;;;;;;19.55;72.13;101301.53;7384910;19;20021;-63
2022/07/28 05:37:11;;;;;;;4.95;0.40;;;;;;;19.54;71.36;101298.03;7388423;19;20014;-63
2022/07/28 05:39:38;;;;;;;5.70;0.90;;;;;;;19.56;71.13;101295.97;7384177;19;20036;-63
2022/07/28 05:42:05;;;;;;;4.85;0.40;;;;;;;19.57;70.68;101294.94;7388723;19;20014;-63
2022/07/28 05:44:32;;;;;;;6.20;0.82;;;;;;;19.58;70.50;101293.91;7385712;19;20096;-63
2022/07/28 05:47:04;;;;;;;4.07;0.50;;;;;;;19.58;70.82;101298.44;7387742;19;20167;-66
2022/07/28 05:49:32;;;;;;;2.55;0.40;;;;;;;19.58;70.82;101299.25;7382145;19;20674;-63
2022/07/28 05:51:59;;;;;;;4.50;0.50;;;;;;;19.59;71.04;101298.25;7385646;19;20460;-65
2022/07/28 05:54:27;;;;;;;5.47;0.40;;;;;;;19.59;70.04;101292.06;7386725;19;20074;-65
2022/07/28 05:56:54;;;;;;;4.22;0.50;;;;;;;19.61;70.09;101304.19;7386925;19;20010;-66
2022/07/28 05:59:20;;;;;;;4.30;0.47;;;;;;;19.62;70.19;101302.34;7387536;19;20018;-66
2022/07/28 06:01:48;;;;;;;3.22;0.70;;;;;;;19.66;69.97;101302.78;7386786;19;20006;-67
2022/07/28 06:04:15;;;;;;;3.15;0.47;;;;;;;19.69;69.74;101294.38;7384328;19;20029;-62
2022/07/28 06:06:53;;;;;;;3.05;0.50;;;;;;;19.75;69.84;101288.22;7387205;19;20014;-62
2022/07/28 06:09:20;;;;;;;4.00;0.52;;;;;;;19.80;69.78;101291.94;7386551;19;20018;-63
2022/07/28 06:11:49;;;;;;;5.07;1.38;;;;;;;19.84;68.96;101293.19;7387650;19;20093;-65
2022/07/28 06:14:17;;;;;;;4.05;0.60;;;;;;;19.87;68.32;101286.59;7386980;19;20010;-62
2022/07/28 06:16:49;;;;;;;4.68;0.50;;;;;;;19.89;68.25;101301.41;7388028;19;20018;-62
2022/07/28 06:19:17;;;;;;;3.05;0.50;;;;;;;19.93;68.03;101296.47;7383514;19;20010;-62
2022/07/28 06:21:44;;;;;;;5.68;0.50;;;;;;;19.95;68.13;101289.91;7386102;19;20022;-63
2022/07/28 06:24:11;;;;;;;3.28;0.40;;;;;;;19.95;67.65;101295.25;7386100;19;20022;-62
2022/07/28 06:26:39;;;;;;;3.33;0.32;;;;;;;19.94;67.78;101292.78;7384028;19;20331;-62
2022/07/28 06:29:11;;;;;;;4.00;0.45;;;;;;;19.92;67.26;101286.81;7385117;19;20022;-62
2022/07/28 06:31:38;;;;;;;5.07;0.60;;;;;;;19.93;67.28;101293.81;7386472;19;20018;-62
2022/07/28 06:34:06;;;;;;;2.58;0.50;;;;;;;19.92;66.99;101294.81;7382677;19;20018;-66
2022/07/28 06:36:33;;;;;;;4.20;0.50;;;;;;;19.95;67.03;101294.44;7384943;19;20007;-66
2022/07/28 06:39:00;;;;;;;7.95;0.80;;;;;;;19.96;67.59;101304.91;7383077;19;20094;-67
2022/07/28 06:41:27;;;;;;;5.43;0.85;;;;;;;19.99;67.73;101303.69;7384910;19;20014;-66
2022/07/28 06:43:54;;;;;;;2.63;0.50;;;;;;;20.02;66.85;101305.94;7385053;19;20022;-66
2022/07/28 06:46:22;;;;;;;5.95;0.60;;;;;;;20.03;66.52;101303.06;7384648;19;20045;-68
2022/07/28 06:48:49;;;;;;;3.88;0.70;;;;;;;20.03;66.60;101303.06;7380004;19;20032;-67
2022/07/28 06:51:18;;;;;;;5.90;2.55;;;;;;;20.05;66.96;101305.56;7383253;19;20010;-67
2022/07/28 06:53:47;;;;;;;6.95;0.60;;;;;;;20.05;65.61;101310.91;7383151;19;20045;-67
2022/07/28 06:56:15;;;;;;;2.88;0.60;;;;;;;20.05;65.38;101305.56;7384962;19;20014;-65
2022/07/28 06:58:42;;;;;;;1.60;0.45;;;;;;;20.05;65.13;101305.56;7382143;19;20082;-66
2022/07/28 07:01:15;;;;;;;2.63;0.50;;;;;;;20.06;64.79;101302.66;7384601;19;20024;-66
2022/07/28 07:03:42;;;;;;;3.95;0.75;;;;;;;20.09;64.80;101301.44;7384216;19;20042;-67
2022/07/28 07:06:10;;;;;;;4.10;0.63;;;;;;;20.07;64.05;101306.16;7381692;19;20018;-67
2022/07/28 07:08:37;;;;;;;2.78;0.63;;;;;;;20.08;63.77;101305.97;7382762;19;20260;-66
2022/07/28 07:11:04;;;;;;;4.05;0.90;;;;;;;20.10;63.43;101305.78;7385278;19;20078;-64
2022/07/28 07:13:31;;;;;;;3.40;0.63;;;;;;;20.13;63.69;101308.03;7385565;19;20082;-65
2022/07/28 07:15:59;;;;;;;3.63;0.50;;;;;;;20.14;63.45;101307.00;7384153;19;20317;-65
2022/07/28 07:18:27;;;;;;;7.05;0.60;;;;;;;20.16;63.74;101312.16;7382263;19;20018;-66
2022/07/28 07:20:56;;;;;;;2.47;0.40;;;;;;;20.18;63.18;101318.09;7383770;19;20011;-66
2022/07/28 07:23:23;;;;;;;4.97;0.47;;;;;;;20.23;63.03;101310.28;7381785;19;20380;-67
2022/07/28 07:25:51;;;;;;;3.45;0.60;;;;;;;20.24;62.38;101319.97;7383959;19;20006;-66
2022/07/28 07:28:20;;;;;;;3.22;0.50;;;;;;;20.27;61.85;101308.84;7382866;19;20015;-66
2022/07/28 07:30:47;;;;;;;3.28;0.70;;;;;;;20.27;61.11;101311.53;7382645;19;20437;-66
2022/07/28 07:33:15;;;;;;;5.18;0.77;;;;;;;20.30;61.38;101317.31;7383984;19;20502;-66
2022/07/28 07:35:42;;;;;;;5.20;1.23;;;;;;;20.34;60.87;101297.19;7381406;19;20018;-66
2022/07/28 07:38:12;;;;;;;28.00;11.27;;;;;;;20.38;60.36;101301.09;7384168;19;20025;-66
2022/07/28 07:40:39;;;;;;;11.70;3.33;;;;;;;20.40;59.88;101296.38;7384641;19;20715;-66
2022/07/28 07:43:06;;;;;;;10.27;1.30;;;;;;;20.42;60.27;101286.28;7382746;19;20010;-66
2022/07/28 07:45:33;;;;;;;7.15;0.63;;;;;;;20.43;60.07;101293.25;7383028;19;20436;-66
2022/07/28 07:48:05;;;;;;;3.28;0.50;;;;;;;20.46;59.22;101290.19;7381931;19;20017;-65
2022/07/28 07:50:37;;;;;;;7.30;0.85;;;;;;;20.49;59.93;101286.28;7381201;19;20023;-66
2022/07/28 07:53:04;;;;;;;6.70;0.70;;;;;;;20.55;59.90;101282.78;7382750;19;20015;-66
2022/07/28 07:55:31;;;;;;;9.60;1.00;;;;;;;20.58;59.58;101287.69;7382902;19;20011;-66
2022/07/28 07:58:05;;;;;;;9.65;0.88;;;;;;;20.62;60.97;101283.56;7381058;19;20383;-66
2022/07/28 08:00:38;;;;;;;6.33;0.80;;;;;;;20.65;61.45;101290.38;7383489;19;20038;-66
2022/07/28 08:03:07;;;;;;;3.63;0.50;;;;;;;20.65;60.34;101282.34;7384344;19;20291;-66
2022/07/28 08:05:39;;;;;;;2.65;0.52;;;;;;;20.63;59.01;101290.59;7387597;19;20032;-67
2022/07/28 08:08:10;;;;;;;6.38;0.50;;;;;;;20.62;58.61;101285.47;7388675;19;20131;-65
2022/07/28 08:10:38;;;;;;;3.67;0.60;;;;;;;20.62;58.73;101285.47;7389760;19;20239;-65
2022/07/28 08:13:06;;;;;;;2.40;0.50;;;;;;;20.62;58.92;101285.47;7389153;19;20356;-66
2022/07/28 08:15:34;;;;;;;4.47;0.60;;;;;;;20.66;63.80;101282.16;7386896;19;20022;-65
2022/07/28 08:18:05;;;;;;;14.10;10.40;;;;;;;20.67;60.79;101283.78;7390482;19;20007;-65
2022/07/28 08:20:35;;;;;;;9.48;1.40;;;;;;;20.69;59.33;101288.94;7387608;19;20816;-66
2022/07/28 08:23:03;;;;;;;5.55;0.95;;;;;;;20.69;59.62;101281.72;7388570;19;20019;-66
2022/07/28 08:25:33;;;;;;;7.18;0.70;;;;;;;20.73;60.30;101288.31;7389791;19;20014;-67
2022/07/28 08:28:05;;;;;;;4.90;0.88;;;;;;;20.75;59.81;101286.25;7388273;19;20022;-65
2022/07/28 08:30:35;;;;;;;3.35;0.75;;;;;;;20.78;58.64;101293.03;7388807;19;20487;-66
2022/07/28 08:33:02;;;;;;;4.78;0.50;;;;;;;20.79;57.87;101283.97;7388754;19;20022;-66
2022/07/28 08:35:30;;;;;;;4.55;0.57;;;;;;;20.81;58.00;101295.31;7383733;19;20619;-66
2022/07/28 08:38:10;;;;;;;6.53;0.50;;;;;;;20.83;58.00;101288.69;7387810;19;20019;-66
2022/07/28 08:40:38;;;;;;;8.65;2.75;;;;;;;20.86;57.51;101293.66;7388813;19;20010;-66
2022/07/28 08:43:16;;;;;;;14.80;5.45;;;;;;;20.91;57.33;101290.34;7389389;19;20493;-68
2022/07/28 08:45:47;;;;;;;5.78;0.93;;;;;;;20.94;56.11;101292.59;7389367;19;20298;-67
2022/07/28 08:48:28;;;;;;;6.45;0.60;;;;;;;20.96;55.43;101287.88;7385721;19;20018;-66
2022/07/28 08:51:08;;;;;;;5.78;0.40;;;;;;;21.00;54.93;101285.59;7386972;19;20047;-67
2022/07/28 08:53:38;;;;;;;5.63;0.75;;;;;;;21.04;54.51;101292.16;7389138;19;20361;-66
2022/07/28 08:56:07;;;;;;;4.30;0.90;;;;;;;21.08;53.36;101280.81;7388639;19;20300;-66
2022/07/28 08:58:36;;;;;;;5.03;0.93;;;;;;;21.12;53.86;101286.59;7388370;19;20062;-66
2022/07/28 09:01:09;;;;;;;6.35;0.95;;;;;;;21.17;53.82;101276.94;7387054;19;20025;-66
2022/07/28 09:03:38;;;;;;;3.22;0.60;;;;;;;21.20;54.04;101278.34;7385399;19;20010;-66
2022/07/28 09:06:06;;;;;;;3.13;0.47;;;;;;;21.21;53.91;101293.38;7386617;19;20019;-66
2022/07/28 09:08:39;;;;;;;6.15;0.80;;;;;;;21.20;53.83;101283.69;7385211;19;20014;-66
2022/07/28 09:11:11;;;;;;;24.70;11.73;;;;;;;21.22;55.09;101284.31;7386014;19;20034;-66
2022/07/28 09:13:38;;;;;;;6.10;1.80;;;;;;;21.27;54.35;101287.19;7386556;19;20031;-67
2022/07/28 09:16:05;;;;;;;8.27;0.70;;;;;;;21.36;52.91;101282.41;7388188;19;20402;-62
2022/07/28 09:18:32;;;;;;;4.97;0.40;;;;;;;21.48;52.08;101270.00;7385461;19;20399;-61
2022/07/28 09:20:59;;;;;;;6.30;0.50;;;;;;;21.61;51.65;101286.81;7389617;19;20010;-63
2022/07/28 09:23:42;;;;;;;3.55;0.50;;;;;;;21.73;50.19;101278.94;7386548;19;20522;-65
2022/07/28 09:26:11;;;;;;;9.00;0.50;;;;;;;21.85;51.24;101281.75;7387294;19;20037;-65
2022/07/28 09:28:51;;;;;;;3.83;0.40;;;;;;;21.87;50.59;101277.81;7386974;19;20995;-63
2022/07/28 09:31:18;;;;;;;4.03;0.60;;;;;;;21.86;50.00;101278.84;7388052;19;20019;-62
2022/07/28 09:33:56;;;;;;;2.30;0.50;;;;;;;21.85;50.40;101276.38;7384968;19;20027;-63
2022/07/28 09:36:23;;;;;;;3.60;0.40;;;;;;;21.82;49.74;101279.50;7385110;19;20018;-63
2022/07/28 09:38:50;;;;;;;4.05;0.45;;;;;;;21.80;50.25;101271.66;7386857;19;20123;-62
2022/07/28 09:41:20;;;;;;;1.55;0.43;;;;;;;21.77;49.91;101272.94;7386603;19;20119;-62
2022/07/28 09:43:49;;;;;;;2.88;0.50;;;;;;;21.77;49.35;101278.28;7388107;19;20014;-62
2022/07/28 09:46:24;;;;;;;4.38;0.60;;;;;;;21.76;48.93;101276.66;7386877;19;20022;-62
2022/07/28 09:48:57;;;;;;;1.92;0.60;;;;;;;21.77;49.47;101272.94;7383538;19;20328;-62
2022/07/28 09:51:29;;;;;;;4.47;1.27;;;;;;;21.75;47.56;101276.84;7384957;19;20209;-63
2022/07/28 09:54:14;;;;;;;56.70;27.63;;;;;;;21.75;47.98;101264.28;7386132;19;20013;-63
2022/07/28 09:56:44;;;;;;;12.30;4.80;;;;;;;21.75;47.54;101272.31;7387344;19;20007;-63
2022/07/28 09:59:12;;;;;;;8.85;1.90;;;;;;;21.76;47.59;101265.09;7387213;19;20070;-63
2022/07/28 10:01:57;;;;;;;4.18;0.77;;;;;;;21.83;47.56;101271.25;7387204;19;20486;-65
2022/07/28 10:04:39;;;;;;;4.10;0.50;;;;;;;21.92;46.54;101266.44;7384398;19;20013;-63
2022/07/28 10:07:15;;;;;;;5.47;0.40;;;;;;;22.00;46.46;101263.53;7385940;19;20046;-66
2022/07/28 10:09:53;;;;;;;3.28;0.50;;;;;;;22.09;46.64;101259.56;7385025;19;20481;-68
2022/07/28 10:12:23;;;;;;;2.97;0.40;;;;;;;22.22;47.19;101262.13;7386563;19;20014;-66
2022/07/28 10:14:53;;;;;;;3.95;1.35;;;;;;;22.31;47.21;101262.66;7386403;19;20019;-62
2022/07/28 10:17:30;;;;;;;3.50;0.68;;;;;;;22.34;46.16;101264.94;7385501;19;20014;-63
2022/07/28 10:20:04;;;;;;;9.27;0.60;;;;;;;22.39;45.76;101260.56;7385385;19;20415;-63
2022/07/28 10:22:36;;;;;;;2.72;0.50;;;;;;;22.44;46.11;101267.94;7384866;19;20015;-64
2022/07/28 10:25:11;;;;;;;4.05;0.50;;;;;;;22.47;46.06;101262.94;7381925;19;20011;-62
2022/07/28 10:27:40;;;;;;;2.78;0.50;;;;;;;22.49;46.83;101260.06;7385704;19;20018;-62
2022/07/28 10:30:08;;;;;;;4.35;0.60;;;;;;;22.50;46.20;101261.69;7383754;19;20015;-62
2022/07/28 10:32:43;;;;;;;6.13;0.80;;;;;;;22.51;46.08;101263.31;7386540;19;20022;-62
2022/07/28 10:35:13;;;;;;;3.75;0.50;;;;;;;22.50;46.33;101267.06;7383523;19;20006;-63
2022/07/28 10:38:10;;;;;;;5.00;0.50;;;;;;;22.48;46.49;101266.44;7384320;19;20076;-63
2022/07/28 10:40:43;;;;;;;10.43;3.67;;;;;;;22.43;46.53;101263.59;7382130;19;20010;-62
2022/07/28 10:43:11;;;;;;;3.22;0.60;;;;;;;22.41;47.01;101263.81;7382702;19;20014;-63
2022/07/28 10:45:39;;;;;;;6.90;1.00;;;;;;;22.43;48.07;101260.94;7384665;19;20619;-63
2022/07/28 10:48:27;;;;;;;8.68;1.00;;;;;;;22.48;47.03;101264.59;7384240;19;20014;-63
2022/07/28 10:50:56;;;;;;;2.58;0.50;;;;;;;22.53;46.87;101261.25;7384050;19;20038;-63
2022/07/28 10:53:32;;;;;;;9.23;0.80;;;;;;;22.53;46.65;101259.38;7385382;19;20528;-63
2022/07/28 10:56:08;;;;;;;2.22;0.50;;;;;;;22.51;46.82;101255.28;7386153;19;20025;-63
2022/07/28 10:58:48;;;;;;;6.85;0.60;;;;;;;22.52;46.43;101243.50;7384340;19;20015;-63
2022/07/28 11:01:35;;;;;;;6.13;1.00;;;;;;;22.52;46.25;101254.22;7384919;19;20010;-63
2022/07/28 11:04:40;;;;;;;6.60;0.90;;;;;;;22.57;47.87;101257.91;7382210;19;20597;-63
2022/07/28 11:07:11;;;;;;;6.28;0.65;;;;;;;22.62;46.81;101262.59;7383566;19;20015;-62
2022/07/28 11:09:39;;;;;;;3.45;0.60;;;;;;;22.67;46.88;101261.94;7382600;19;20037;-66
2022/07/28 11:12:06;;;;;;;7.60;0.98;;;;;;;22.71;46.53;101263.16;7383859;19;20311;-67
2022/07/28 11:14:36;;;;;;;6.47;0.98;;;;;;;22.70;47.66;101251.59;7384835;19;20014;-67
2022/07/28 11:17:05;;;;;;;9.45;1.15;;;;;;;22.68;48.60;101264.41;7385089;19;20038;-67
2022/07/28 11:19:42;;;;;;;3.42;0.60;;;;;;;22.63;48.64;101253.50;7380890;19;20025;-67
2022/07/28 11:22:32;;;;;;;2.22;0.55;;;;;;;22.64;49.36;101257.84;7383576;19;20150;-67
2022/07/28 11:25:00;;;;;;;2.47;0.50;;;;;;;22.59;49.75;101258.50;7382571;19;20010;-66
2022/07/28 11:27:50;;;;;;;2.92;0.90;;;;;;;22.63;49.20;101260.75;7382732;19;20026;-66
2022/07/28 11:30:25;;;;;;;5.75;0.70;;;;;;;22.65;50.35;101266.72;7381705;19;20072;-66
2022/07/28 11:32:54;;;;;;;4.07;0.82;;;;;;;22.64;50.69;101259.69;7384554;19;20042;-66
2022/07/28 11:35:25;;;;;;;5.10;1.55;;;;;;;22.66;50.26;101262.97;7381295;19;20378;-67
2022/07/28 11:38:04;;;;;;;4.75;0.80;;;;;;;22.68;50.18;101258.22;7379964;19;20052;-67
2022/07/28 11:40:40;;;;;;;3.78;0.60;;;;;;;22.71;50.09;101258.63;7381776;19;20010;-67
2022/07/28 11:43:23;;;;;;;5.28;0.77;;;;;;;22.72;50.42;101268.31;7383159;19;20007;-66